Time;durP1;ratioP1;P1;durP2;ratioP2;P2;SDS_P1;SDS_P2;PMS_P1;PMS_P2;Temp;Humidity;BMP_temperature;BMP_pressure;BME280_temperature;BME280_humidity;BME280_pressure;Samples;Min_cycle;Max_cycle;Signal;HPM_P1;HPM_P2
2021/09/17 00:01:53;;;;;;;2.78;2.08;;;21.80;70.10;;;;;;5052818;28;20414;-73
2021/09/17 00:04:19;;;;;;;2.65;1.60;;;21.90;70.30;;;;;;5052928;28;20363;-73
2021/09/17 00:06:45;;;;;;;2.45;1.77;;;21.80;70.00;;;;;;5052957;28;20071;-73
2021/09/17 00:09:10;;;;;;;1.88;1.58;;;21.80;69.90;;;;;;5053347;28;20044;-73
2021/09/17 00:11:36;;;;;;;2.40;1.27;;;21.70;69.90;;;;;;5052824;28;20025;-73
2021/09/17 00:14:02;;;;;;;2.88;1.40;;;21.70;69.80;;;;;;5052671;28;20067;-73
2021/09/17 00:16:28;;;;;;;1.35;0.80;;;21.60;70.00;;;;;;5051532;28;20037;-73
2021/09/17 00:18:54;;;;;;;3.53;0.80;;;21.60;69.80;;;;;;5052747;28;20099;-73
2021/09/17 00:21:20;;;;;;;2.08;0.88;;;21.50;69.80;;;;;;5051503;28;20025;-73
2021/09/17 00:23:45;;;;;;;0.80;0.80;;;21.50;69.90;;;;;;5051386;28;20068;-73
2021/09/17 00:26:11;;;;;;;1.65;1.10;;;21.40;69.90;;;;;;5052889;28;20036;-73
2021/09/17 00:28:37;;;;;;;2.22;1.35;;;21.40;70.10;;;;;;5052818;28;20029;-73
2021/09/17 00:31:03;;;;;;;3.17;0.93;;;21.40;70.10;;;;;;5054338;28;20079;-73
2021/09/17 00:33:30;;;;;;;1.27;1.02;;;21.40;69.90;;;;;;5056809;28;20078;-73
2021/09/17 00:35:56;;;;;;;1.02;0.90;;;21.40;70.10;;;;;;5055515;28;20044;-72
2021/09/17 00:38:22;;;;;;;6.35;1.20;;;21.30;69.90;;;;;;5056635;28;20021;-73
2021/09/17 00:40:48;;;;;;;7.03;1.20;;;21.30;70.00;;;;;;5056818;28;20025;-72
2021/09/17 00:43:14;;;;;;;4.70;1.30;;;21.30;70.00;;;;;;5056707;28;20360;-73
2021/09/17 00:45:41;;;;;;;2.72;0.90;;;21.20;70.00;;;;;;5056553;28;20021;-72
2021/09/17 00:48:06;;;;;;;5.63;1.35;;;21.20;70.00;;;;;;5055183;28;20070;-73
2021/09/17 00:50:33;;;;;;;3.28;1.40;;;21.20;69.90;;;;;;5055146;28;20076;-73
2021/09/17 00:52:59;;;;;;;3.17;1.10;;;21.20;69.80;;;;;;5055558;28;20025;-73
2021/09/17 00:55:25;;;;;;;4.18;0.95;;;21.20;69.80;;;;;;5055592;28;20109;-72
2021/09/17 00:57:50;;;;;;;1.05;0.60;;;21.20;69.90;;;;;;5067581;28;20139;-72
2021/09/17 01:00:17;;;;;;;0.73;0.55;;;21.10;69.40;;;;;;5075481;28;20587;-73
2021/09/17 01:02:43;;;;;;;2.83;0.40;;;21.10;69.30;;;;;;5075016;28;20135;-72
2021/09/17 01:05:11;;;;;;;1.38;0.70;;;21.10;69.10;;;;;;5075271;28;20020;-72
2021/09/17 01:07:37;;;;;;;0.85;0.57;;;21.10;69.20;;;;;;5065101;28;20021;-72
2021/09/17 01:10:04;;;;;;;1.15;0.70;;;21.00;69.20;;;;;;5055109;28;20128;-72
2021/09/17 01:12:31;;;;;;;0.80;0.47;;;21.10;69.00;;;;;;5060996;28;20020;-72
2021/09/17 01:14:57;;;;;;;1.40;0.70;;;21.00;69.10;;;;;;5075012;28;20073;-72
2021/09/17 01:17:34;;;;;;;1.13;0.63;;;21.00;69.00;;;;;;5066961;28;20021;-73
2021/09/17 01:20:00;;;;;;;0.60;0.60;;;21.00;68.80;;;;;;5055010;28;20393;-73
2021/09/17 01:22:26;;;;;;;1.38;0.70;;;21.00;68.30;;;;;;5053559;28;20052;-72
2021/09/17 01:24:52;;;;;;;2.65;1.08;;;21.00;68.00;;;;;;5069334;28;20024;-72
2021/09/17 01:27:18;;;;;;;1.73;0.90;;;21.00;67.90;;;;;;5072822;28;20431;-72
2021/09/17 01:29:44;;;;;;;2.42;0.95;;;21.00;67.90;;;;;;5074796;28;20021;-72
2021/09/17 01:32:09;;;;;;;2.10;1.17;;;21.00;68.10;;;;;;5074817;28;20099;-73
2021/09/17 01:34:35;;;;;;;2.13;1.40;;;21.00;68.10;;;;;;5069655;28;20021;-72
2021/09/17 01:37:01;;;;;;;2.75;1.30;;;21.00;67.50;;;;;;5054446;28;20470;-73
2021/09/17 01:39:27;;;;;;;1.90;1.25;;;21.00;67.10;;;;;;5054908;28;20025;-72
2021/09/17 01:41:53;;;;;;;2.13;1.88;;;21.00;67.20;;;;;;5052741;28;20053;-72
2021/09/17 01:44:18;;;;;;;1.95;1.52;;;21.00;67.10;;;;;;5053159;28;20032;-72
2021/09/17 01:46:44;;;;;;;7.55;1.60;;;20.90;67.20;;;;;;5054534;28;20021;-73
2021/09/17 01:49:10;;;;;;;2.90;1.70;;;20.90;67.00;;;;;;5053347;28;20087;-72
2021/09/17 01:51:36;;;;;;;1.98;1.77;;;20.90;67.00;;;;;;5053289;28;20025;-72
2021/09/17 01:54:04;;;;;;;1.42;1.27;;;20.90;67.30;;;;;;5053267;28;20028;-72
2021/09/17 01:56:30;;;;;;;2.25;1.80;;;20.90;67.60;;;;;;5054541;28;20025;-72
2021/09/17 01:58:56;;;;;;;2.42;2.22;;;20.90;67.50;;;;;;5053118;28;20032;-72
2021/09/17 02:01:21;;;;;;;5.53;2.10;;;20.90;67.60;;;;;;5054272;28;20524;-72
2021/09/17 02:03:47;;;;;;;4.40;2.83;;;20.90;67.70;;;;;;5054377;28;20040;-72
2021/09/17 02:06:24;;;;;;;4.03;2.83;;;20.90;67.70;;;;;;5054345;28;20076;-72
2021/09/17 02:08:50;;;;;;;5.47;4.22;;;20.80;67.70;;;;;;5054081;28;20033;-72
2021/09/17 02:11:17;;;;;;;13.85;8.23;;;20.80;67.60;;;;;;5054095;28;20493;-73
2021/09/17 02:13:43;;;;;;;12.02;8.43;;;20.80;67.60;;;;;;5052849;28;20029;-72
2021/09/17 02:16:09;;;;;;;13.52;9.02;;;20.80;67.60;;;;;;5054102;28;20075;-72
2021/09/17 02:18:35;;;;;;;14.88;10.20;;;20.80;67.60;;;;;;5053977;28;20025;-73
2021/09/17 02:21:01;;;;;;;14.20;9.80;;;20.70;67.70;;;;;;5067060;28;20078;-73
2021/09/17 02:23:27;;;;;;;17.35;11.48;;;20.60;68.50;;;;;;5071422;28;20086;-73
2021/09/17 02:25:53;;;;;;;13.27;10.18;;;20.60;68.40;;;;;;5053871;28;20029;-73
2021/09/17 02:28:18;;;;;;;10.65;9.38;;;20.50;68.80;;;;;;5053910;28;20029;-73
2021/09/17 02:30:44;;;;;;;13.38;11.55;;;20.40;69.10;;;;;;5053833;28;20470;-73
2021/09/17 02:33:10;;;;;;;16.45;10.85;;;20.40;69.40;;;;;;5061398;28;20025;-73
2021/09/17 02:35:36;;;;;;;13.05;10.38;;;20.30;69.50;;;;;;5052232;28;20029;-73
2021/09/17 02:38:02;;;;;;;11.20;9.98;;;20.20;69.50;;;;;;5053541;28;20050;-73
2021/09/17 02:40:30;;;;;;;11.20;9.85;;;20.20;69.50;;;;;;5053389;28;20441;-73
2021/09/17 02:42:57;;;;;;;10.02;8.50;;;20.10;69.70;;;;;;5053566;28;20028;-73
2021/09/17 02:45:23;;;;;;;11.15;9.50;;;20.10;70.10;;;;;;5052041;28;20076;-73
2021/09/17 02:47:49;;;;;;;10.98;8.98;;;20.10;70.30;;;;;;5052478;28;20029;-73
2021/09/17 02:50:16;;;;;;;10.57;8.93;;;20.10;70.30;;;;;;5053821;28;20100;-72
2021/09/17 02:52:42;;;;;;;18.90;9.80;;;20.00;70.10;;;;;;5054264;28;20368;-73
2021/09/17 02:55:09;;;;;;;11.68;8.93;;;20.00;70.30;;;;;;5053898;28;20390;-73
2021/09/17 02:57:37;;;;;;;8.25;7.35;;;20.00;70.30;;;;;;5061407;28;20099;-73
2021/09/17 03:00:08;;;;;;;10.15;8.73;;;20.00;70.60;;;;;;5074266;28;20024;-73
2021/09/17 03:02:33;;;;;;;8.65;7.70;;;20.00;70.90;;;;;;5073840;28;20093;-73
2021/09/17 03:05:00;;;;;;;11.93;9.00;;;20.00;70.80;;;;;;5073699;28;20424;-73
2021/09/17 03:07:26;;;;;;;11.35;7.90;;;20.00;70.50;;;;;;5069429;28;20379;-73
2021/09/17 03:09:51;;;;;;;13.45;8.02;;;20.00;70.60;;;;;;5053912;28;20025;-73
2021/09/17 03:12:17;;;;;;;8.98;8.00;;;20.00;70.60;;;;;;5053877;28;20032;-73
2021/09/17 03:14:43;;;;;;;9.25;7.95;;;19.90;70.60;;;;;;5053611;28;20363;-73
2021/09/17 03:17:09;;;;;;;10.07;8.60;;;19.90;70.50;;;;;;5053497;28;20044;-73
2021/09/17 03:19:35;;;;;;;14.02;8.98;;;19.90;70.70;;;;;;5053684;28;20029;-73
2021/09/17 03:22:01;;;;;;;11.07;8.82;;;19.90;70.90;;;;;;5053677;28;20025;-73
2021/09/17 03:24:28;;;;;;;12.18;8.65;;;19.90;70.90;;;;;;5053518;28;20429;-73
2021/09/17 03:26:54;;;;;;;12.13;8.18;;;19.90;71.00;;;;;;5053507;28;20066;-73
2021/09/17 03:29:20;;;;;;;9.95;7.40;;;19.90;70.90;;;;;;5053362;28;20021;-72
2021/09/17 03:31:45;;;;;;;9.00;7.63;;;19.90;70.70;;;;;;5052094;28;20023;-73
2021/09/17 03:34:11;;;;;;;8.82;7.25;;;19.90;70.70;;;;;;5052017;28;20071;-73
2021/09/17 03:36:43;;;;;;;8.45;7.32;;;19.90;70.90;;;;;;5054218;28;20036;-73
2021/09/17 03:39:11;;;;;;;9.38;6.88;;;19.90;70.70;;;;;;5073273;28;20098;-72
2021/09/17 03:41:38;;;;;;;6.45;5.57;;;19.90;70.60;;;;;;5073241;28;20497;-72
2021/09/17 03:44:04;;;;;;;9.77;5.93;;;19.90;70.30;;;;;;5072859;28;20035;-72
2021/09/17 03:46:30;;;;;;;7.28;6.20;;;19.90;70.20;;;;;;5072833;28;20416;-72
2021/09/17 03:48:55;;;;;;;9.82;6.50;;;19.90;69.80;;;;;;5053145;28;20028;-72
2021/09/17 03:51:21;;;;;;;7.50;6.05;;;19.90;69.80;;;;;;5053060;28;20467;-72
2021/09/17 03:53:47;;;;;;;12.45;6.35;;;19.90;69.80;;;;;;5053099;28;20033;-72
2021/09/17 03:56:13;;;;;;;10.35;8.05;;;19.80;70.00;;;;;;5051784;28;20052;-72
2021/09/17 03:58:39;;;;;;;11.32;9.23;;;19.80;70.00;;;;;;5052886;28;20110;-72
2021/09/17 04:01:04;;;;;;;10.30;8.20;;;19.80;69.70;;;;;;5052811;28;20076;-72
2021/09/17 04:03:30;;;;;;;11.00;7.88;;;19.80;69.80;;;;;;5052828;28;20025;-72
2021/09/17 04:05:56;;;;;;;8.48;7.57;;;19.80;70.00;;;;;;5052242;28;20025;-72
2021/09/17 04:08:22;;;;;;;9.88;7.75;;;19.80;70.30;;;;;;5052641;28;20103;-72
2021/09/17 04:10:50;;;;;;;14.50;8.40;;;19.90;70.40;;;;;;5052556;28;20056;-73
2021/09/17 04:13:16;;;;;;;8.82;7.30;;;19.90;70.10;;;;;;5052665;28;20375;-73
2021/09/17 04:15:42;;;;;;;9.93;8.05;;;19.90;70.20;;;;;;5052506;28;20083;-73
2021/09/17 04:18:08;;;;;;;8.63;7.57;;;19.90;70.00;;;;;;5052603;28;20086;-73
2021/09/17 04:20:33;;;;;;;13.55;8.32;;;19.90;69.80;;;;;;5057753;28;20111;-73
2021/09/17 04:22:59;;;;;;;8.25;7.35;;;19.90;69.90;;;;;;5070855;28;20024;-73
2021/09/17 04:25:26;;;;;;;10.63;8.68;;;19.90;69.70;;;;;;5072751;28;20017;-73
2021/09/17 04:27:52;;;;;;;8.98;7.80;;;19.90;70.30;;;;;;5062691;28;20027;-73
2021/09/17 04:30:18;;;;;;;10.25;7.22;;;19.90;69.30;;;;;;5052506;28;20092;-73
2021/09/17 04:32:45;;;;;;;9.13;7.65;;;19.80;69.30;;;;;;5052694;28;20025;-73
2021/09/17 04:35:11;;;;;;;13.95;9.30;;;19.80;69.20;;;;;;5052635;28;20095;-72
2021/09/17 04:37:46;;;;;;;10.15;8.10;;;19.70;68.80;;;;;;5052296;28;20041;-71
2021/09/17 04:40:14;;;;;;;8.07;7.28;;;19.70;69.10;;;;;;5051073;28;20368;-72
2021/09/17 04:42:40;;;;;;;11.50;7.68;;;19.60;69.20;;;;;;5052254;28;20100;-72
2021/09/17 04:45:07;;;;;;;10.07;8.25;;;19.60;69.20;;;;;;5062625;28;20495;-71
2021/09/17 04:47:34;;;;;;;9.70;7.47;;;19.50;69.10;;;;;;5065824;28;20403;-72
2021/09/17 04:50:02;;;;;;;13.73;6.88;;;19.50;69.00;;;;;;5052353;28;20036;-72
2021/09/17 04:52:28;;;;;;;10.95;7.05;;;19.50;68.80;;;;;;5055783;28;20107;-71
2021/09/17 04:54:54;;;;;;;7.72;6.32;;;19.40;68.60;;;;;;5052184;28;20525;-72
2021/09/17 04:57:20;;;;;;;9.48;6.80;;;19.30;68.30;;;;;;5052167;28;20021;-72
2021/09/17 04:59:46;;;;;;;7.65;6.45;;;19.20;68.00;;;;;;5052250;28;20148;-72
2021/09/17 05:02:12;;;;;;;9.38;6.18;;;19.10;68.10;;;;;;5052077;28;20119;-72
2021/09/17 05:04:37;;;;;;;8.07;5.97;;;19.00;67.90;;;;;;5064551;28;20035;-72
2021/09/17 05:07:03;;;;;;;6.05;5.45;;;18.90;68.00;;;;;;5069245;28;20021;-72
2021/09/17 05:09:32;;;;;;;8.43;5.88;;;18.80;68.00;;;;;;5050603;28;20135;-72
2021/09/17 05:11:57;;;;;;;14.15;7.10;;;18.80;68.20;;;;;;5052204;28;20100;-72
2021/09/17 05:14:23;;;;;;;6.47;5.47;;;18.70;68.30;;;;;;5052124;28;20104;-73
2021/09/17 05:16:49;;;;;;;9.05;6.10;;;18.60;68.60;;;;;;5051733;28;20155;-73
2021/09/17 05:19:15;;;;;;;8.15;6.30;;;18.60;68.60;;;;;;5061362;28;20454;-73
2021/09/17 05:21:41;;;;;;;8.27;6.40;;;18.50;68.80;;;;;;5054605;28;20044;-73
2021/09/17 05:24:07;;;;;;;8.27;6.03;;;18.50;68.90;;;;;;5055895;28;20470;-73
2021/09/17 05:26:33;;;;;;;10.07;6.13;;;18.40;69.80;;;;;;5055733;28;20486;-72
2021/09/17 05:28:59;;;;;;;13.13;7.45;;;18.30;69.30;;;;;;5055585;28;20021;-73
2021/09/17 05:31:24;;;;;;;10.30;6.57;;;18.30;69.50;;;;;;5055672;28;20063;-72
2021/09/17 05:33:50;;;;;;;10.43;6.97;;;18.30;69.80;;;;;;5055610;28;20032;-71
2021/09/17 05:36:16;;;;;;;10.45;6.28;;;18.30;69.90;;;;;;5055536;28;20033;-71
2021/09/17 05:38:42;;;;;;;11.05;6.82;;;18.30;70.10;;;;;;5055170;28;20079;-71
2021/09/17 05:41:08;;;;;;;9.45;7.03;;;18.30;70.50;;;;;;5055347;28;20051;-72
2021/09/17 05:43:33;;;;;;;11.52;7.38;;;18.30;70.50;;;;;;5055335;28;20432;-72
2021/09/17 05:45:59;;;;;;;11.35;8.35;;;18.30;70.40;;;;;;5055439;28;20448;-72
2021/09/17 05:48:25;;;;;;;10.52;7.35;;;18.30;70.30;;;;;;5054697;28;20032;-71
2021/09/17 05:50:52;;;;;;;13.90;8.20;;;18.30;70.30;;;;;;5055142;28;20094;-72
2021/09/17 05:53:18;;;;;;;11.93;8.40;;;18.30;70.30;;;;;;5056815;28;20025;-72
2021/09/17 05:55:44;;;;;;;11.48;8.95;;;18.40;70.40;;;;;;5073446;28;20108;-72
2021/09/17 05:58:10;;;;;;;10.32;8.30;;;18.40;70.00;;;;;;5060318;28;20059;-72
2021/09/17 06:00:36;;;;;;;11.90;9.02;;;18.40;69.90;;;;;;5054772;28;20037;-72
2021/09/17 06:03:02;;;;;;;17.85;8.27;;;18.50;69.90;;;;;;5055233;28;20025;-71
2021/09/17 06:05:28;;;;;;;12.45;9.13;;;18.40;69.50;;;;;;5053280;28;20025;-72
2021/09/17 06:07:54;;;;;;;14.30;9.00;;;18.40;69.30;;;;;;5063397;28;20109;-73
2021/09/17 06:10:20;;;;;;;12.77;7.63;;;18.40;69.30;;;;;;5055031;28;20542;-72
2021/09/17 06:12:46;;;;;;;11.45;8.30;;;18.40;69.20;;;;;;5053658;28;20021;-73
2021/09/17 06:15:13;;;;;;;10.90;8.57;;;18.40;68.70;;;;;;5054847;28;20021;-73
2021/09/17 06:17:42;;;;;;;11.40;7.97;;;18.40;68.90;;;;;;5054239;28;20417;-73
2021/09/17 06:20:11;;;;;;;12.65;9.10;;;18.40;69.80;;;;;;5053527;28;20017;-73
2021/09/17 06:22:39;;;;;;;14.35;8.15;;;18.40;69.10;;;;;;5052080;28;20078;-73
2021/09/17 06:25:06;;;;;;;10.32;7.82;;;18.40;69.40;;;;;;5054595;28;20017;-73
2021/09/17 06:27:32;;;;;;;11.40;8.43;;;18.40;69.40;;;;;;5053160;28;20021;-72
2021/09/17 06:29:57;;;;;;;9.73;8.20;;;18.40;69.40;;;;;;5054046;28;20094;-72
2021/09/17 06:32:23;;;;;;;14.00;8.60;;;18.50;69.40;;;;;;5054197;28;20025;-72
2021/09/17 06:34:49;;;;;;;12.18;8.35;;;18.50;69.30;;;;;;5052889;28;20029;-72
2021/09/17 06:37:15;;;;;;;10.93;7.55;;;18.60;69.30;;;;;;5052502;28;20040;-72
2021/09/17 06:39:41;;;;;;;9.35;7.75;;;18.70;69.10;;;;;;5054297;28;20025;-72
2021/09/17 06:42:07;;;;;;;8.95;7.18;;;18.80;68.40;;;;;;5054302;28;20562;-72
2021/09/17 06:44:34;;;;;;;12.90;7.85;;;18.70;67.80;;;;;;5072991;28;20028;-72
2021/09/17 06:46:59;;;;;;;13.07;8.02;;;18.70;67.80;;;;;;5071734;28;20376;-72
2021/09/17 06:49:26;;;;;;;8.82;7.22;;;18.70;67.30;;;;;;5052966;28;20103;-73
2021/09/17 06:51:52;;;;;;;11.27;7.38;;;18.70;66.90;;;;;;5054055;28;20043;-72
2021/09/17 06:54:18;;;;;;;8.07;7.28;;;18.70;67.10;;;;;;5063061;28;20513;-71
2021/09/17 06:56:44;;;;;;;9.43;7.18;;;18.70;67.50;;;;;;5072779;28;20039;-72
2021/09/17 06:59:09;;;;;;;20.60;7.60;;;18.70;67.50;;;;;;5053849;28;20025;-72
2021/09/17 07:01:35;;;;;;;9.73;6.30;;;18.70;67.40;;;;;;5053792;28;20045;-72
2021/09/17 07:04:01;;;;;;;10.85;7.28;;;18.70;67.50;;;;;;5053513;28;20057;-72
2021/09/17 07:06:27;;;;;;;12.60;7.38;;;18.80;68.20;;;;;;5052796;28;20076;-72
2021/09/17 07:08:54;;;;;;;10.60;7.18;;;19.00;68.40;;;;;;5053245;28;20105;-72
2021/09/17 07:11:22;;;;;;;11.68;7.43;;;19.00;67.50;;;;;;5053863;28;20020;-72
2021/09/17 07:13:48;;;;;;;7.97;6.63;;;19.10;67.20;;;;;;5053649;28;20025;-72
2021/09/17 07:16:14;;;;;;;7.53;6.43;;;19.20;67.20;;;;;;5053679;28;20025;-72
2021/09/17 07:18:40;;;;;;;9.85;6.68;;;19.30;67.60;;;;;;5053277;28;20036;-72
2021/09/17 07:21:05;;;;;;;10.35;6.45;;;19.40;66.70;;;;;;5052831;28;20083;-72
2021/09/17 07:23:31;;;;;;;7.15;5.80;;;19.50;66.70;;;;;;5065649;28;20390;-72
2021/09/17 07:25:57;;;;;;;11.35;6.05;;;19.60;66.70;;;;;;5071148;28;20031;-72
2021/09/17 07:28:23;;;;;;;7.43;6.15;;;19.70;66.40;;;;;;5052896;28;20379;-72
2021/09/17 07:30:48;;;;;;;7.47;5.88;;;19.70;65.80;;;;;;5052521;28;20363;-72
2021/09/17 07:33:14;;;;;;;6.95;5.53;;;19.80;65.60;;;;;;5054914;28;20021;-72
2021/09/17 07:35:40;;;;;;;7.85;5.20;;;19.90;65.90;;;;;;5053364;28;20448;-72
2021/09/17 07:38:06;;;;;;;11.63;5.47;;;20.00;66.30;;;;;;5052087;28;20037;-72
2021/09/17 07:40:32;;;;;;;8.90;5.90;;;20.00;65.10;;;;;;5052459;28;20028;-72
2021/09/17 07:42:58;;;;;;;7.50;5.22;;;20.10;63.70;;;;;;5053063;28;20524;-72
2021/09/17 07:45:25;;;;;;;10.77;6.05;;;20.10;63.30;;;;;;5056356;28;20031;-72
2021/09/17 07:47:51;;;;;;;7.32;5.05;;;20.20;63.30;;;;;;5062222;28;20027;-72
2021/09/17 07:50:18;;;;;;;6.13;5.03;;;20.20;63.90;;;;;;5053053;28;20092;-72
2021/09/17 07:52:44;;;;;;;8.88;5.68;;;20.30;64.30;;;;;;5067461;28;20031;-72
2021/09/17 07:55:11;;;;;;;6.57;5.47;;;20.40;63.20;;;;;;5071196;28;20032;-72
2021/09/17 07:57:37;;;;;;;10.20;5.38;;;20.40;62.60;;;;;;5072682;28;20056;-72
2021/09/17 08:00:08;;;;;;;8.38;5.70;;;20.40;61.30;;;;;;5072542;28;20154;-73
2021/09/17 08:02:34;;;;;;;7.50;4.90;;;20.40;61.00;;;;;;5057590;28;20136;-72
2021/09/17 08:05:00;;;;;;;5.38;4.32;;;20.40;61.40;;;;;;5051932;28;20116;-72
2021/09/17 08:07:26;;;;;;;6.72;5.35;;;20.50;62.20;;;;;;5052730;28;20032;-72
2021/09/17 08:09:51;;;;;;;5.07;4.57;;;20.50;61.60;;;;;;5068491;28;20035;-72
2021/09/17 08:12:17;;;;;;;6.40;5.55;;;20.50;61.60;;;;;;5072896;28;20024;-72
2021/09/17 08:14:43;;;;;;;7.13;4.88;;;20.60;60.80;;;;;;5059197;28;20032;-72
2021/09/17 08:17:08;;;;;;;7.28;5.68;;;20.60;61.50;;;;;;5072703;28;20048;-72
2021/09/17 08:19:34;;;;;;;10.38;5.35;;;20.60;61.40;;;;;;5062815;28;20436;-72
2021/09/17 08:22:00;;;;;;;8.10;5.65;;;20.70;61.00;;;;;;5064168;28;20036;-72
2021/09/17 08:24:26;;;;;;;9.52;6.13;;;20.70;61.30;;;;;;5060876;28;20065;-72
2021/09/17 08:26:52;;;;;;;7.30;5.40;;;20.70;60.10;;;;;;5067085;28;20029;-72
2021/09/17 08:29:19;;;;;;;10.05;4.57;;;20.80;61.40;;;;;;5066023;28;20123;-72
2021/09/17 08:31:46;;;;;;;6.25;4.93;;;20.80;61.30;;;;;;5072849;28;20035;-72
2021/09/17 08:34:11;;;;;;;8.57;5.80;;;20.80;60.70;;;;;;5071061;28;20037;-72
2021/09/17 08:36:38;;;;;;;8.82;5.68;;;20.90;60.10;;;;;;5060288;28;20087;-72
2021/09/17 08:39:05;;;;;;;8.85;5.35;;;20.90;60.20;;;;;;5061533;28;20040;-72
2021/09/17 08:41:31;;;;;;;11.77;5.75;;;20.90;59.80;;;;;;5068724;28;20556;-72
2021/09/17 08:43:58;;;;;;;7.50;5.03;;;20.90;59.60;;;;;;5072602;28;20103;-72
2021/09/17 08:46:24;;;;;;;6.85;5.45;;;20.90;59.50;;;;;;5063724;28;20025;-71
2021/09/17 08:48:50;;;;;;;7.57;5.18;;;20.90;59.10;;;;;;5065056;28;20032;-72
2021/09/17 08:51:18;;;;;;;10.57;4.95;;;20.80;58.80;;;;;;5056235;28;20055;-72
2021/09/17 08:53:44;;;;;;;5.70;4.60;;;20.80;58.80;;;;;;5070262;28;20031;-72
2021/09/17 08:56:18;;;;;;;6.20;5.03;;;20.80;58.60;;;;;;5060751;28;20033;-71
2021/09/17 08:58:47;;;;;;;5.70;4.93;;;20.80;58.70;;;;;;5056470;28;20548;-72
2021/09/17 09:01:33;;;;;;;5.50;4.43;;;20.80;58.90;;;;;;5064093;28;20403;-72
2021/09/17 09:04:02;;;;;;;6.28;4.68;;;20.80;59.20;;;;;;5074633;28;20050;-72
2021/09/17 09:06:35;;;;;;;5.28;4.38;;;20.90;59.60;;;;;;5073984;28;20025;-72
2021/09/17 09:09:01;;;;;;;7.30;4.30;;;20.90;59.20;;;;;;5056103;28;20024;-71
2021/09/17 09:11:30;;;;;;;6.97;4.75;;;21.00;59.30;;;;;;5056077;28;20033;-72
2021/09/17 09:14:08;;;;;;;4.60;3.83;;;21.00;58.80;;;;;;5067329;28;20024;-72
2021/09/17 09:16:40;;;;;;;6.03;4.63;;;21.10;58.60;;;;;;5064494;28;20033;-72
2021/09/17 09:19:29;;;;;;;6.07;4.57;;;21.10;57.80;;;;;;5082321;28;20041;-72
2021/09/17 09:22:04;;;;;;;6.60;4.45;;;21.10;58.10;;;;;;5054280;28;20033;-71
2021/09/17 09:24:32;;;;;;;7.43;4.53;;;21.10;58.10;;;;;;5063331;28;20078;-72
2021/09/17 09:27:15;;;;;;;10.27;4.80;;;21.20;58.80;;;;;;5072899;28;20017;-72
2021/09/17 09:29:47;;;;;;;5.87;4.27;;;21.30;58.50;;;;;;5075878;28;20504;-72
2021/09/17 09:32:30;;;;;;;7.07;4.93;;;21.30;57.90;;;;;;5067278;28;20020;-72
2021/09/17 09:35:03;;;;;;;6.37;4.43;;;21.40;57.90;;;;;;5065550;28;20047;-72
2021/09/17 09:37:31;;;;;;;6.03;4.95;;;21.50;58.00;;;;;;5055445;28;20052;-72
2021/09/17 09:40:17;;;;;;;7.82;4.60;;;21.70;58.90;;;;;;5056354;28;20028;-73
2021/09/17 09:42:47;;;;;;;5.35;4.60;;;21.70;57.90;;;;;;5062895;28;20028;-73
2021/09/17 09:45:19;;;;;;;6.25;4.35;;;21.90;58.10;;;;;;5055358;28;20063;-72
2021/09/17 09:47:50;;;;;;;5.30;4.80;;;21.90;56.90;;;;;;5055452;28;20027;-72
2021/09/17 09:50:33;;;;;;;7.78;5.28;;;22.00;56.70;;;;;;5058698;28;20031;-72
2021/09/17 09:53:01;;;;;;;10.18;5.70;;;22.00;56.90;;;;;;5066197;28;20493;-72
2021/09/17 09:55:28;;;;;;;8.93;5.43;;;22.10;55.80;;;;;;5073436;28;20123;-72
2021/09/17 09:57:55;;;;;;;7.72;5.55;;;22.10;56.30;;;;;;5075410;28;20435;-72
2021/09/17 10:00:23;;;;;;;6.10;4.85;;;22.20;57.10;;;;;;5071509;28;20028;-72
2021/09/17 10:02:49;;;;;;;5.78;4.88;;;22.30;56.40;;;;;;5054717;28;20068;-72
2021/09/17 10:05:19;;;;;;;6.82;5.32;;;22.40;56.50;;;;;;5054383;28;20028;-72
2021/09/17 10:07:45;;;;;;;7.65;5.10;;;22.50;56.70;;;;;;5060997;28;20048;-71
2021/09/17 10:10:13;;;;;;;6.05;4.65;;;22.70;57.10;;;;;;5071967;28;20074;-71
2021/09/17 10:12:40;;;;;;;4.97;4.53;;;22.80;55.60;;;;;;5067781;28;20099;-71
2021/09/17 10:15:09;;;;;;;5.60;4.53;;;22.90;55.90;;;;;;5054278;28;20032;-71
2021/09/17 10:17:38;;;;;;;6.78;4.63;;;23.10;55.90;;;;;;5059066;28;20025;-71
2021/09/17 10:20:07;;;;;;;6.63;4.88;;;23.20;56.10;;;;;;5065329;28;20017;-72
2021/09/17 10:22:41;;;;;;;8.52;5.18;;;23.30;55.50;;;;;;5054480;28;20044;-72
2021/09/17 10:25:17;;;;;;;7.97;5.97;;;23.50;54.10;;;;;;5065052;28;20044;-71
2021/09/17 10:28:00;;;;;;;9.50;5.35;;;23.50;54.50;;;;;;5055945;28;20029;-71
2021/09/17 10:30:30;;;;;;;6.25;4.25;;;23.60;54.50;;;;;;5061151;28;20048;-71
2021/09/17 10:32:56;;;;;;;5.00;4.50;;;23.70;55.70;;;;;;5068994;28;20377;-71
2021/09/17 10:35:23;;;;;;;6.10;4.60;;;23.70;53.90;;;;;;5058568;28;20044;-71
2021/09/17 10:37:56;;;;;;;5.85;4.50;;;23.80;53.20;;;;;;5055936;28;20017;-71
2021/09/17 10:40:41;;;;;;;4.63;3.90;;;23.80;52.90;;;;;;5054061;28;20021;-71
2021/09/17 10:43:10;;;;;;;5.60;4.43;;;23.90;54.20;;;;;;5054325;28;20033;-71
2021/09/17 10:45:49;;;;;;;6.80;4.47;;;24.00;54.50;;;;;;5066157;28;20338;-71
2021/09/17 10:48:24;;;;;;;5.28;4.50;;;24.10;53.50;;;;;;5054332;28;20043;-71
2021/09/17 10:51:00;;;;;;;5.97;4.40;;;24.20;53.00;;;;;;5057061;28;20025;-71
2021/09/17 10:53:41;;;;;;;5.63;4.22;;;24.30;53.10;;;;;;5054975;28;20041;-71
2021/09/17 10:56:14;;;;;;;4.30;3.83;;;24.30;54.40;;;;;;5054061;28;20567;-71
2021/09/17 10:58:44;;;;;;;4.72;4.25;;;24.40;53.40;;;;;;5053819;28;20056;-71
2021/09/17 11:01:12;;;;;;;5.47;3.92;;;24.50;53.20;;;;;;5053717;28;20045;-71
2021/09/17 11:03:41;;;;;;;4.72;4.07;;;24.50;53.10;;;;;;5072459;28;20057;-71
2021/09/17 11:06:18;;;;;;;5.20;4.40;;;24.60;53.10;;;;;;5074055;28;20050;-71
2021/09/17 11:08:50;;;;;;;4.82;3.72;;;24.60;50.90;;;;;;5073905;28;20074;-71
2021/09/17 11:11:28;;;;;;;6.22;4.45;;;24.60;52.40;;;;;;5071628;28;20095;-71
2021/09/17 11:13:57;;;;;;;4.57;4.05;;;24.70;51.10;;;;;;5072880;28;20021;-71
2021/09/17 11:16:24;;;;;;;5.32;4.05;;;24.80;52.10;;;;;;5072971;28;20052;-71
2021/09/17 11:19:05;;;;;;;4.55;3.80;;;24.80;51.70;;;;;;5073806;28;20024;-72
2021/09/17 11:21:34;;;;;;;4.43;4.00;;;24.80;50.30;;;;;;5062034;28;20044;-72
2021/09/17 11:24:01;;;;;;;5.80;4.63;;;24.80;49.50;;;;;;5052135;28;20029;-72
2021/09/17 11:26:32;;;;;;;4.22;3.83;;;24.60;49.60;;;;;;5055388;28;20048;-72
2021/09/17 11:28:58;;;;;;;6.20;4.78;;;24.60;49.60;;;;;;5051572;28;20026;-72
2021/09/17 11:31:28;;;;;;;5.40;4.07;;;24.60;49.70;;;;;;5055785;28;20017;-72
2021/09/17 11:33:57;;;;;;;6.43;3.58;;;24.60;50.20;;;;;;5073068;28;20020;-72
2021/09/17 11:36:38;;;;;;;6.22;3.85;;;24.50;50.40;;;;;;5073379;28;20020;-73
2021/09/17 11:39:19;;;;;;;6.82;4.13;;;24.50;51.20;;;;;;5073400;28;20025;-72
2021/09/17 11:41:51;;;;;;;5.03;4.10;;;24.60;51.40;;;;;;5073374;28;20029;-72
2021/09/17 11:44:49;;;;;;;3.88;3.53;;;24.60;49.00;;;;;;5063908;28;20120;-71
2021/09/17 11:47:20;;;;;;;4.10;3.70;;;24.60;50.90;;;;;;5059470;28;20432;-71
2021/09/17 11:49:46;;;;;;;4.20;3.80;;;24.70;50.80;;;;;;5072249;28;20024;-71
2021/09/17 11:52:14;;;;;;;4.78;3.50;;;24.70;50.80;;;;;;5053844;28;20048;-71
2021/09/17 11:54:40;;;;;;;4.28;3.65;;;24.80;50.70;;;;;;5052229;28;20100;-71
2021/09/17 11:57:07;;;;;;;5.00;3.85;;;24.90;48.80;;;;;;5052180;28;20107;-71
2021/09/17 11:59:38;;;;;;;8.75;4.22;;;24.90;48.60;;;;;;5053263;28;20056;-71
2021/09/17 12:02:21;;;;;;;4.03;3.35;;;24.90;47.20;;;;;;5052157;28;20060;-71
2021/09/17 12:04:53;;;;;;;7.13;3.90;;;24.90;48.90;;;;;;5051867;28;20025;-71
2021/09/17 12:07:20;;;;;;;7.30;4.15;;;24.90;47.60;;;;;;5051979;28;20474;-71
2021/09/17 12:09:46;;;;;;;4.10;3.42;;;25.00;48.10;;;;;;5052041;28;20021;-72
2021/09/17 12:12:13;;;;;;;5.05;3.30;;;25.00;48.40;;;;;;5061228;28;20095;-71
2021/09/17 12:14:47;;;;;;;4.95;3.35;;;25.10;49.00;;;;;;5049021;28;20055;-71
2021/09/17 12:17:13;;;;;;;6.60;3.35;;;25.10;49.00;;;;;;5050925;28;20027;-71
2021/09/17 12:20:00;;;;;;;4.75;3.70;;;25.00;49.40;;;;;;5051527;28;20394;-71
2021/09/17 12:22:37;;;;;;;6.30;3.80;;;25.10;49.50;;;;;;5051909;28;20025;-71
2021/09/17 12:25:09;;;;;;;7.10;3.55;;;25.10;49.10;;;;;;5051826;28;20072;-71
2021/09/17 12:27:37;;;;;;;4.10;3.08;;;25.10;47.20;;;;;;5051155;28;20371;-71
2021/09/17 12:30:30;;;;;;;6.18;4.60;;;25.10;48.90;;;;;;5051712;28;20021;-72
2021/09/17 12:33:05;;;;;;;5.18;3.83;;;25.10;49.10;;;;;;5051630;28;20063;-71
2021/09/17 12:35:31;;;;;;;4.68;3.88;;;25.10;49.50;;;;;;5061266;28;20029;-72
2021/09/17 12:37:58;;;;;;;5.75;3.63;;;25.10;47.50;;;;;;5067333;28;20119;-72
2021/09/17 12:40:29;;;;;;;6.25;3.83;;;25.20;49.50;;;;;;5051706;28;20025;-72
2021/09/17 12:43:07;;;;;;;8.32;4.25;;;25.20;48.40;;;;;;5049975;28;20021;-72
2021/09/17 12:45:34;;;;;;;6.90;4.05;;;25.30;48.20;;;;;;5057099;28;20051;-72
2021/09/17 12:48:03;;;;;;;6.38;3.95;;;25.20;47.60;;;;;;5051571;28;20032;-72